Aeroporto :
LOGIN :

Iscrizione | Disclaimer

   EN    FR    IT 

 










Sommario :    VFR   VFR Marginale   IFR   IFR Intensivo   IFR Molto Intensivo
Visibilità : 
Base nubi : 
>= 8 km
>= 3000ft
5 / 8 km
1000 / 3000 ft
1500m / 5 km
500 / 1000 ft
800 / 1500m
200 / 500 ft
< 800m
< 200 ft
Simboli :   Temporali  Nebbia  Neve Forte  Precipitazioni Forti  Vento > 20 kt
SIGMETs :   Varie  Temporali  Ghiacco  Turbolenza  Onda orograficha  Ceneri Vulcaniche






- Altitudine del aeroporto : 505 ft
- Codice IATA : SXB


LFST - Strasbourg

ULTIMO METAR :
  • 080600Z AUTO 00000KT CAVOK 23/18 Q1020 NOSIG

METARs OBSOLETI :
  • 080530Z AUTO VRB02KT CAVOK 20/18 Q1020 NOSIG
  • 080500Z AUTO 23003KT CAVOK 19/17 Q1020 NOSIG
  • 080430Z AUTO VRB02KT CAVOK 18/17 Q1020 NOSIG
  • 080400Z AUTO 00000KT CAVOK 18/17 Q1020 NOSIG
  • 080330Z AUTO 01002KT CAVOK 18/17 Q1019 NOSIG

TAF TAF LFST
Valido dal 08 a 06 ore il 09 a 06 ore UTC


080500Z 0806/0906 VRB03KT CAVOK
BECMG 0807/0809 16005KT



MetMap, La meteo Aeronautica in un colpo d'occhio ! - Copyright ORBIFLY Dicembre 2007 - Disclaimer

ORBIFLY MET'MAP TEAM :

Programmazione e sviluppo : Alexandra Zaïnal
Concezione : Baudouin d'Aumeries
Aiuto per la programmazione : Marc-Olivier Méhu
Supporto tecnico e logistico : Manuel Goepfert
Aiuto per la traduzione : Arnaldo La Scala

Contatto : metmap@orbifly.com




FONTI E CREDITI :

   NOAA